createdAt,value
2023-03-11T00:00:59.215Z,3.40
2023-03-11T00:03:28.921Z,3.30
2023-03-11T00:05:58.481Z,3.30
2023-03-11T00:08:26.698Z,3.20
2023-03-11T00:10:56.272Z,3.20
2023-03-11T00:13:29.773Z,3.30
2023-03-11T00:16:00.055Z,3.10
2023-03-11T00:18:31.929Z,3.10
2023-03-11T00:21:00.944Z,3.00
2023-03-11T00:23:30.335Z,2.70
2023-03-11T00:25:59.649Z,2.70
2023-03-11T00:28:29.527Z,2.70
2023-03-11T00:30:58.300Z,2.70
2023-03-11T00:33:27.968Z,2.80
2023-03-11T00:35:58.801Z,2.90
2023-03-11T00:38:26.884Z,3.00
2023-03-11T00:40:55.452Z,2.90
2023-03-11T00:43:25.027Z,2.90
2023-03-11T00:45:54.463Z,2.80
2023-03-11T00:48:23.170Z,2.80
2023-03-11T00:50:53.264Z,2.70
2023-03-11T00:53:21.718Z,2.70
2023-03-11T00:55:49.692Z,2.80
2023-03-11T00:58:18.570Z,2.80
2023-03-11T01:00:50.292Z,2.90
2023-03-11T01:03:22.230Z,2.90
2023-03-11T01:05:50.712Z,3.00
2023-03-11T01:08:43.729Z,3.10
2023-03-11T01:11:11.839Z,3.00
2023-03-11T01:13:40.149Z,3.00
2023-03-11T01:16:09.617Z,3.10
2023-03-11T01:18:39.259Z,3.20
2023-03-11T01:21:07.862Z,3.30
2023-03-11T01:23:36.104Z,3.60
2023-03-11T01:26:04.732Z,3.60
2023-03-11T01:28:33.056Z,3.70
2023-03-11T01:31:01.671Z,3.70
2023-03-11T01:33:29.876Z,3.60
2023-03-11T01:35:59.273Z,3.70
2023-03-11T01:38:29.655Z,4.00
2023-03-11T01:40:58.726Z,4.10
2023-03-11T01:43:48.422Z,4.20
2023-03-11T01:46:22.256Z,4.20
2023-03-11T01:48:52.229Z,3.90
2023-03-11T01:51:28.310Z,4.10
2023-03-11T01:53:58.758Z,4.10
2023-03-11T01:56:27.322Z,3.80
2023-03-11T01:58:56.365Z,3.80
2023-03-11T02:01:25.884Z,3.90
2023-03-11T02:03:55.271Z,3.60
2023-03-11T02:06:26.348Z,3.60
2023-03-11T02:08:56.254Z,3.70
2023-03-11T02:11:29.290Z,3.50
2023-03-11T02:14:02.739Z,3.60
2023-03-11T02:16:34.400Z,3.90
2023-03-11T02:19:18.054Z,4.20
2023-03-11T02:21:48.100Z,4.30
2023-03-11T02:24:24.665Z,4.50
2023-03-11T02:26:57.031Z,4.70
2023-03-11T02:29:27.733Z,5.00
2023-03-11T02:31:56.742Z,5.00
2023-03-11T02:34:27.548Z,4.90
2023-03-11T02:36:56.473Z,4.70
2023-03-11T02:39:36.249Z,4.40
2023-03-11T02:42:11.415Z,4.40
2023-03-11T02:44:40.885Z,4.10
2023-03-11T02:47:09.227Z,4.10
2023-03-11T02:49:39.251Z,4.10
2023-03-11T02:52:08.101Z,4.40
2023-03-11T02:54:36.143Z,4.50
2023-03-11T02:57:11.553Z,4.50
2023-03-11T02:59:39.601Z,4.70
2023-03-11T03:02:11.329Z,4.80
2023-03-11T03:04:41.046Z,4.70
2023-03-11T03:07:10.277Z,4.50
2023-03-11T03:09:39.277Z,4.40
2023-03-11T03:12:10.156Z,4.50
2023-03-11T03:14:39.718Z,4.40
2023-03-11T03:17:08.390Z,4.30
2023-03-11T03:19:36.510Z,4.30
2023-03-11T03:22:05.581Z,4.30
2023-03-11T03:24:34.811Z,4.60
2023-03-11T03:27:03.329Z,4.20
2023-03-11T03:29:32.878Z,4.20
2023-03-11T03:32:01.712Z,4.20
2023-03-11T03:34:29.914Z,4.20
2023-03-11T03:36:58.889Z,4.20
2023-03-11T03:39:29.312Z,4.30
2023-03-11T03:41:59.841Z,4.20
2023-03-11T03:44:30.965Z,4.20
2023-03-11T03:47:02.493Z,4.20
2023-03-11T03:49:30.641Z,4.20
2023-03-11T03:52:00.342Z,4.60
2023-03-11T03:54:32.292Z,4.70
2023-03-11T03:57:00.569Z,4.90
2023-03-11T03:59:29.842Z,5.10
2023-03-11T04:02:01.930Z,5.20
2023-03-11T04:04:32.129Z,4.90
2023-03-11T04:07:00.182Z,4.90
2023-03-11T04:09:28.312Z,5.10
2023-03-11T04:11:56.883Z,5.30
2023-03-11T04:14:26.022Z,5.30
2023-03-11T04:17:00.594Z,5.40
2023-03-11T04:19:30.606Z,5.30
2023-03-11T04:21:58.983Z,5.40
2023-03-11T04:24:29.138Z,5.30
2023-03-11T04:26:57.290Z,5.30
2023-03-11T04:29:25.867Z,5.40
2023-03-11T04:31:55.159Z,5.70
2023-03-11T04:34:25.358Z,5.70
2023-03-11T04:36:55.617Z,5.80
2023-03-11T04:39:29.361Z,5.90
2023-03-11T04:41:59.355Z,5.90
2023-03-11T04:44:28.684Z,5.90
2023-03-11T04:46:58.377Z,5.90
2023-03-11T04:49:26.802Z,5.90
2023-03-11T04:51:56.649Z,5.80
2023-03-11T04:54:26.427Z,5.70
2023-03-11T04:56:55.016Z,5.50
2023-03-11T04:59:24.482Z,5.60
2023-03-11T05:01:56.530Z,5.90
2023-03-11T05:04:25.640Z,5.90
2023-03-11T05:06:53.685Z,5.80
2023-03-11T05:09:27.379Z,5.70
2023-03-11T05:11:55.460Z,5.90
2023-03-11T05:14:23.857Z,5.80
2023-03-11T05:16:53.382Z,5.90
2023-03-11T05:19:34.753Z,5.90
2023-03-11T05:22:12.926Z,5.80
2023-03-11T05:24:42.475Z,5.90
2023-03-11T05:27:10.803Z,5.60
2023-03-11T05:29:40.105Z,5.50
2023-03-11T05:32:12.460Z,5.80
2023-03-11T05:34:41.536Z,5.80
2023-03-11T05:37:09.966Z,5.90
2023-03-11T05:39:38.623Z,6.00
2023-03-11T05:42:09.284Z,5.90
2023-03-11T05:44:38.087Z,5.70
2023-03-11T05:47:07.397Z,5.50
2023-03-11T05:49:38.293Z,5.50
2023-03-11T05:52:07.064Z,5.30
2023-03-11T05:54:36.062Z,5.00
2023-03-11T05:57:04.633Z,5.00
2023-03-11T05:59:37.624Z,5.10
2023-03-11T06:02:06.670Z,5.10
2023-03-11T06:04:36.527Z,5.30
2023-03-11T06:07:07.972Z,5.60
2023-03-11T06:09:40.059Z,5.90
2023-03-11T06:12:13.450Z,6.00
2023-03-11T06:14:56.203Z,6.00
2023-03-11T06:17:24.468Z,5.90
2023-03-11T06:19:53.884Z,5.90
2023-03-11T06:22:23.987Z,5.90
2023-03-11T06:24:52.161Z,5.80
2023-03-11T06:27:20.878Z,5.90
2023-03-11T06:29:53.387Z,6.00
2023-03-11T06:32:23.804Z,6.10
2023-03-11T06:34:53.472Z,6.20
2023-03-11T06:37:25.461Z,6.20
2023-03-11T06:39:54.299Z,6.10
2023-03-11T06:42:25.062Z,6.30
2023-03-11T06:44:59.785Z,6.30
2023-03-11T06:47:31.248Z,6.30
2023-03-11T06:49:59.354Z,6.40
2023-03-11T06:52:28.682Z,6.20
2023-03-11T06:54:58.810Z,6.30
2023-03-11T06:57:29.845Z,6.20
2023-03-11T07:00:00.906Z,6.30
2023-03-11T07:02:34.612Z,6.30
2023-03-11T07:05:03.523Z,6.40
2023-03-11T07:07:32.034Z,6.40
2023-03-11T07:10:02.108Z,6.30
2023-03-11T07:12:30.609Z,6.20
2023-03-11T07:15:00.043Z,6.20
2023-03-11T07:17:30.060Z,6.00
2023-03-11T07:20:00.476Z,6.00
2023-03-11T07:22:29.051Z,6.10
2023-03-11T07:25:00.173Z,6.20
2023-03-11T07:27:29.424Z,6.00
2023-03-11T07:29:57.723Z,6.00
2023-03-11T07:32:26.312Z,5.70
2023-03-11T07:34:54.398Z,5.50
2023-03-11T07:37:23.831Z,5.40
2023-03-11T07:39:51.816Z,5.50
2023-03-11T07:42:20.909Z,5.50
2023-03-11T07:44:51.623Z,5.60
2023-03-11T07:47:20.749Z,5.70
2023-03-11T07:49:49.360Z,5.80
2023-03-11T07:52:17.359Z,5.80
2023-03-11T07:54:47.963Z,5.70
2023-03-11T07:57:17.778Z,5.60
2023-03-11T07:59:46.354Z,5.60
2023-03-11T08:02:16.876Z,5.70
2023-03-11T08:04:44.973Z,5.70
2023-03-11T08:07:13.722Z,5.80
2023-03-11T08:09:43.571Z,5.90
2023-03-11T08:12:13.252Z,6.00
2023-03-11T08:14:43.821Z,6.10
2023-03-11T08:17:12.043Z,6.10
2023-03-11T08:19:40.042Z,5.90
2023-03-11T08:22:08.139Z,6.00
2023-03-11T08:24:36.637Z,5.80
2023-03-11T08:27:05.310Z,5.90
2023-03-11T08:29:35.000Z,6.00
2023-03-11T08:32:05.677Z,5.90
2023-03-11T08:34:35.061Z,5.90
2023-03-11T08:37:03.746Z,6.10
2023-03-11T08:39:54.520Z,5.90
2023-03-11T08:42:23.881Z,5.50
2023-03-11T08:44:53.902Z,5.60
2023-03-11T08:47:21.960Z,5.80
2023-03-11T08:50:15.490Z,5.60
2023-03-11T08:52:44.046Z,5.40
2023-03-11T08:55:16.527Z,5.50
2023-03-11T08:57:45.522Z,5.50
2023-03-11T09:00:15.675Z,5.10
2023-03-11T09:02:44.121Z,5.00
2023-03-11T09:05:12.966Z,5.20
2023-03-11T09:07:41.405Z,5.60
2023-03-11T09:10:12.384Z,6.00
2023-03-11T09:12:44.046Z,5.90
2023-03-11T09:15:14.336Z,5.40
2023-03-11T09:17:42.342Z,5.20
2023-03-11T09:20:13.995Z,5.50
2023-03-11T09:22:42.263Z,6.00
2023-03-11T09:25:13.294Z,6.20
2023-03-11T09:27:42.236Z,6.00
2023-03-11T09:30:13.507Z,5.90
2023-03-11T09:32:43.040Z,5.80
2023-03-11T09:35:11.730Z,5.70
2023-03-11T09:37:41.127Z,5.60
2023-03-11T09:40:12.263Z,5.50
2023-03-11T09:42:46.803Z,5.60
2023-03-11T09:45:20.499Z,6.10
2023-03-11T09:48:07.759Z,6.40
2023-03-11T09:50:46.089Z,6.30
2023-03-11T09:53:27.776Z,6.40
2023-03-11T09:55:59.500Z,6.20
2023-03-11T09:58:38.641Z,5.70
2023-03-11T10:01:16.242Z,5.70
2023-03-11T10:03:48.583Z,5.60
2023-03-11T10:06:20.933Z,5.80
2023-03-11T10:08:59.561Z,6.20
2023-03-11T10:11:44.656Z,6.60
2023-03-11T10:14:23.879Z,6.90
2023-03-11T10:16:57.980Z,6.50
2023-03-11T10:19:36.569Z,6.30
2023-03-11T10:22:14.729Z,6.40
2023-03-11T10:24:55.912Z,6.70
2023-03-11T10:27:29.359Z,6.50
2023-03-11T10:30:06.769Z,6.50
2023-03-11T10:32:42.183Z,6.90
2023-03-11T10:35:21.529Z,6.90
2023-03-11T10:37:56.662Z,6.90
2023-03-11T10:40:32.294Z,7.00
2023-03-11T10:43:06.976Z,7.20
2023-03-11T10:45:41.715Z,6.90
2023-03-11T10:48:12.894Z,6.90
2023-03-11T10:50:52.056Z,7.00
2023-03-11T10:53:21.840Z,6.70
2023-03-11T10:55:52.547Z,6.60
2023-03-11T10:58:23.764Z,6.60
2023-03-11T11:01:16.789Z,6.50
2023-03-11T11:03:49.468Z,6.70
2023-03-11T11:06:26.241Z,6.70
2023-03-11T11:09:15.121Z,6.70
2023-03-11T11:11:44.179Z,7.30
2023-03-11T11:14:13.576Z,7.30
2023-03-11T11:16:42.213Z,7.30
2023-03-11T11:19:12.994Z,7.70
2023-03-11T11:21:44.567Z,8.20
2023-03-11T11:24:22.000Z,8.30
2023-03-11T11:27:07.565Z,8.20
2023-03-11T11:29:35.946Z,8.10
2023-03-11T11:32:20.184Z,8.20
2023-03-11T11:34:59.035Z,8.00
2023-03-11T11:37:32.607Z,8.20
2023-03-11T11:40:11.412Z,8.00
2023-03-11T11:42:41.378Z,8.30
2023-03-11T11:45:19.815Z,8.60
2023-03-11T11:47:51.950Z,8.60
2023-03-11T11:50:30.441Z,8.80
2023-03-11T11:53:08.536Z,9.00
2023-03-11T11:55:42.173Z,9.20
2023-03-11T11:58:13.184Z,9.70
2023-03-11T12:00:53.976Z,10.30
2023-03-11T12:03:39.868Z,10.30
2023-03-11T12:06:17.204Z,10.40
2023-03-11T12:08:53.665Z,10.40
2023-03-11T12:11:27.684Z,10.10
2023-03-11T12:14:06.489Z,10.20
2023-03-11T12:16:43.758Z,10.30
2023-03-11T12:19:20.878Z,10.20
2023-03-11T12:22:23.382Z,10.00
2023-03-11T12:25:11.485Z,9.60
2023-03-11T12:27:50.355Z,9.40
2023-03-11T12:30:23.586Z,9.70
2023-03-11T12:32:56.575Z,10.00
2023-03-11T12:35:27.648Z,10.20
2023-03-11T12:38:07.356Z,9.90
2023-03-11T12:41:00.054Z,10.00
2023-03-11T12:43:56.600Z,10.40
2023-03-11T12:47:01.345Z,10.40
2023-03-11T12:49:31.481Z,10.80
2023-03-11T12:52:05.976Z,11.10
2023-03-11T12:54:35.984Z,11.50
2023-03-11T12:57:10.381Z,11.70
2023-03-11T13:00:18.505Z,11.70
2023-03-11T13:03:06.738Z,10.70
2023-03-11T13:05:50.922Z,10.80
2023-03-11T13:08:22.635Z,11.10
2023-03-11T13:10:55.096Z,11.20
2023-03-11T13:13:42.295Z,10.60
2023-03-11T13:16:42.293Z,10.70
2023-03-11T13:19:54.349Z,10.40
2023-03-11T13:22:58.532Z,10.50
2023-03-11T13:25:33.567Z,11.10
2023-03-11T13:28:37.833Z,11.50
2023-03-11T13:31:21.548Z,12.00
2023-03-11T13:33:53.269Z,12.50
2023-03-11T13:36:56.674Z,13.00
2023-03-11T13:39:47.285Z,13.00
2023-03-11T13:42:23.402Z,13.00
2023-03-11T13:44:52.526Z,12.90
2023-03-11T13:47:23.108Z,12.40
2023-03-11T13:49:58.521Z,11.70
2023-03-11T13:52:31.087Z,11.70
2023-03-11T13:55:03.552Z,12.30
2023-03-11T13:57:34.325Z,13.20
2023-03-11T14:00:18.044Z,14.10
2023-03-11T14:02:51.585Z,14.90
2023-03-11T14:05:24.096Z,15.60
2023-03-11T14:07:52.231Z,16.90
2023-03-11T14:10:24.382Z,17.30
2023-03-11T14:12:53.915Z,16.70
2023-03-11T14:15:24.240Z,16.10
2023-03-11T14:18:15.789Z,15.60
2023-03-11T14:20:48.743Z,16.00
2023-03-11T14:23:21.224Z,16.20
2023-03-11T14:25:49.287Z,17.10
2023-03-11T14:28:22.315Z,17.60
2023-03-11T14:30:58.587Z,17.10
2023-03-11T14:33:27.086Z,16.40
2023-03-11T14:36:01.019Z,15.90
2023-03-11T14:38:31.512Z,15.60
2023-03-11T14:41:01.790Z,15.10
2023-03-11T14:43:34.323Z,15.00
2023-03-11T14:46:06.312Z,14.80
2023-03-11T14:48:39.559Z,14.70
2023-03-11T14:51:15.723Z,14.60
2023-03-11T14:53:47.103Z,14.60
2023-03-11T14:56:21.174Z,14.60
2023-03-11T14:59:06.608Z,14.30
2023-03-11T15:01:41.057Z,14.20
2023-03-11T15:04:14.689Z,13.90
2023-03-11T15:06:46.344Z,13.50
2023-03-11T15:09:18.167Z,13.60
2023-03-11T15:11:47.929Z,13.70
2023-03-11T15:14:24.024Z,13.60
2023-03-11T15:16:52.727Z,13.00
2023-03-11T15:19:31.913Z,12.60
2023-03-11T15:22:06.293Z,12.80
2023-03-11T15:24:34.943Z,12.80
2023-03-11T15:27:05.412Z,12.90
2023-03-11T15:29:35.462Z,13.00
2023-03-11T15:32:25.351Z,12.70
2023-03-11T15:35:01.796Z,12.80
2023-03-11T15:37:31.895Z,12.80
2023-03-11T15:40:15.092Z,12.90
2023-03-11T15:42:43.117Z,12.80
2023-03-11T15:45:18.694Z,12.60
2023-03-11T15:47:48.611Z,12.50
2023-03-11T15:50:28.525Z,12.50
2023-03-11T15:53:03.228Z,12.20
2023-03-11T15:55:32.128Z,12.20
2023-03-11T15:58:07.756Z,12.20
2023-03-11T16:00:40.453Z,12.00
2023-03-11T16:03:08.475Z,12.10
2023-03-11T16:05:36.504Z,11.90
2023-03-11T16:08:07.061Z,11.80
2023-03-11T16:10:35.709Z,11.70
2023-03-11T16:13:04.686Z,11.70
2023-03-11T16:15:35.204Z,11.70
2023-03-11T16:18:05.906Z,11.60
2023-03-11T16:20:40.180Z,11.70
2023-03-11T16:23:17.497Z,11.80
2023-03-11T16:25:47.416Z,11.90
2023-03-11T16:28:17.052Z,11.80
2023-03-11T16:30:45.222Z,11.80
2023-03-11T16:33:13.342Z,11.50
2023-03-11T16:35:41.379Z,11.50
2023-03-11T16:38:11.117Z,11.40
2023-03-11T16:40:40.370Z,11.30
2023-03-11T16:43:10.522Z,11.00
2023-03-11T16:45:38.641Z,11.00
2023-03-11T16:48:11.222Z,10.70
2023-03-11T16:50:39.333Z,10.70
2023-03-11T16:53:09.878Z,10.80
2023-03-11T16:55:39.475Z,10.80
2023-03-11T16:58:07.543Z,10.80
2023-03-11T17:00:37.718Z,10.70
2023-03-11T17:03:06.326Z,10.70
2023-03-11T17:05:35.321Z,10.50
2023-03-11T17:08:04.356Z,10.30
2023-03-11T17:10:38.469Z,10.20
2023-03-11T17:13:08.267Z,10.40
2023-03-11T17:15:38.043Z,10.40
2023-03-11T17:18:06.897Z,10.40
2023-03-11T17:20:36.340Z,10.50
2023-03-11T17:23:04.357Z,10.60
2023-03-11T17:25:32.828Z,10.60
2023-03-11T17:28:00.811Z,10.60
2023-03-11T17:30:37.264Z,10.50
2023-03-11T17:33:05.810Z,10.40
2023-03-11T17:35:34.331Z,10.30
2023-03-11T17:38:02.617Z,10.10
2023-03-11T17:40:33.041Z,10.00
2023-03-11T17:43:01.134Z,9.80
2023-03-11T17:45:30.492Z,9.90
2023-03-11T17:47:58.539Z,9.90
2023-03-11T17:50:27.050Z,9.90
2023-03-11T17:52:58.827Z,9.60
2023-03-11T17:55:27.913Z,9.70
2023-03-11T17:57:55.928Z,9.80
2023-03-11T18:00:25.199Z,9.90
2023-03-11T18:02:55.768Z,10.10
2023-03-11T18:05:23.884Z,10.00
2023-03-11T18:07:51.881Z,9.90
2023-03-11T18:10:21.499Z,9.80
2023-03-11T18:12:50.078Z,9.70
2023-03-11T18:15:20.188Z,9.70
2023-03-11T18:17:48.652Z,9.70
2023-03-11T18:20:19.187Z,9.70
2023-03-11T18:22:47.449Z,9.70
2023-03-11T18:25:16.179Z,9.70
2023-03-11T18:27:45.366Z,9.80
2023-03-11T18:30:15.765Z,9.70
2023-03-11T18:32:45.181Z,9.40
2023-03-11T18:35:14.088Z,9.30
2023-03-11T18:37:44.122Z,9.20
2023-03-11T18:40:13.775Z,9.40
2023-03-11T18:42:41.801Z,9.50
2023-03-11T18:45:12.078Z,9.50
2023-03-11T18:47:40.095Z,9.50
2023-03-11T18:50:09.214Z,9.50
2023-03-11T18:52:37.354Z,9.50
2023-03-11T18:55:07.918Z,9.40
2023-03-11T18:57:35.901Z,9.30
2023-03-11T19:00:05.120Z,9.20
2023-03-11T19:02:33.220Z,9.00
2023-03-11T19:05:02.374Z,9.10
2023-03-11T19:07:31.210Z,9.10
2023-03-11T19:09:59.245Z,9.10
2023-03-11T19:12:32.014Z,9.20
2023-03-11T19:15:00.007Z,9.10
2023-03-11T19:17:28.924Z,9.10
2023-03-11T19:19:57.093Z,8.90
2023-03-11T19:22:25.203Z,8.90
2023-03-11T19:24:54.894Z,8.70
2023-03-11T19:27:23.365Z,8.70
2023-03-11T19:29:53.156Z,8.70
2023-03-11T19:32:21.247Z,8.60
2023-03-11T19:34:49.452Z,8.70
2023-03-11T19:37:18.292Z,8.90
2023-03-11T19:39:46.328Z,8.80
2023-03-11T19:42:14.389Z,8.80
2023-03-11T19:44:43.487Z,8.80
2023-03-11T19:47:13.029Z,8.60
2023-03-11T19:49:41.079Z,8.70
2023-03-11T19:52:09.842Z,8.80
2023-03-11T19:54:38.713Z,8.80
2023-03-11T19:57:06.732Z,8.60
2023-03-11T19:59:35.290Z,8.70
2023-03-11T20:02:04.338Z,8.60
2023-03-11T20:04:34.224Z,8.70
2023-03-11T20:07:02.300Z,8.60
2023-03-11T20:09:33.110Z,8.70
2023-03-11T20:12:04.393Z,8.80
2023-03-11T20:14:32.535Z,8.60
2023-03-11T20:17:02.941Z,8.60
2023-03-11T20:19:31.901Z,8.50
2023-03-11T20:22:01.510Z,8.30
2023-03-11T20:24:29.624Z,8.20
2023-03-11T20:26:58.120Z,8.30
2023-03-11T20:29:26.180Z,8.20
2023-03-11T20:31:54.521Z,8.30
2023-03-11T20:34:23.079Z,8.20
2023-03-11T20:36:52.745Z,8.30
2023-03-11T20:39:22.098Z,8.30
2023-03-11T20:41:50.692Z,8.40
2023-03-11T20:44:19.115Z,8.40
2023-03-11T20:46:49.569Z,8.60
2023-03-11T20:49:17.648Z,8.90
2023-03-11T20:51:47.982Z,8.90
2023-03-11T20:54:17.168Z,9.00
2023-03-11T20:56:47.092Z,8.90
2023-03-11T20:59:15.514Z,8.90
2023-03-11T21:01:45.750Z,8.60
2023-03-11T21:04:16.323Z,8.70
2023-03-11T21:06:49.811Z,8.60
2023-03-11T21:09:18.017Z,8.40
2023-03-11T21:11:48.202Z,8.10
2023-03-11T21:14:18.514Z,7.80
2023-03-11T21:16:47.044Z,7.80
2023-03-11T21:19:15.433Z,7.80
2023-03-11T21:21:43.839Z,7.90
2023-03-11T21:24:12.569Z,8.00
2023-03-11T21:26:41.367Z,7.90
2023-03-11T21:29:10.779Z,8.00
2023-03-11T21:31:46.835Z,8.10
2023-03-11T21:34:15.230Z,8.10
2023-03-11T21:36:43.376Z,8.10
2023-03-11T21:39:11.909Z,8.30
2023-03-11T21:41:40.126Z,8.30
2023-03-11T21:44:08.284Z,8.20
2023-03-11T21:46:37.780Z,8.30
2023-03-11T21:49:07.718Z,8.40
2023-03-11T21:51:36.071Z,8.50
2023-03-11T21:54:06.627Z,8.40
2023-03-11T21:56:34.939Z,8.50
2023-03-11T21:59:03.827Z,8.50
2023-03-11T22:01:32.307Z,8.60
2023-03-11T22:04:01.878Z,8.60
2023-03-11T22:06:33.664Z,8.60
2023-03-11T22:09:03.518Z,8.70
2023-03-11T22:11:32.174Z,8.60
2023-03-11T22:14:01.520Z,8.60
2023-03-11T22:16:30.889Z,8.50
2023-03-11T22:18:59.334Z,8.60
2023-03-11T22:21:30.995Z,8.60
2023-03-11T22:23:58.996Z,8.60
2023-03-11T22:26:27.644Z,8.50
2023-03-11T22:28:55.688Z,8.50
2023-03-11T22:31:24.253Z,8.20
2023-03-11T22:33:53.290Z,8.40
2023-03-11T22:36:21.342Z,8.50
2023-03-11T22:38:51.219Z,8.60
2023-03-11T22:41:20.244Z,8.50
2023-03-11T22:43:48.809Z,8.80
2023-03-11T22:46:16.885Z,8.70
2023-03-11T22:48:45.958Z,8.60
2023-03-11T22:51:14.081Z,8.70
2023-03-11T22:53:42.384Z,8.80
2023-03-11T22:56:15.088Z,8.90
2023-03-11T22:58:45.153Z,8.90
2023-03-11T23:01:14.205Z,8.90
2023-03-11T23:03:44.188Z,9.00
2023-03-11T23:06:17.740Z,9.00
2023-03-11T23:08:46.863Z,9.20
2023-03-11T23:11:20.504Z,9.10
2023-03-11T23:13:50.002Z,9.00
2023-03-11T23:16:21.044Z,9.10
2023-03-11T23:18:52.057Z,9.10
2023-03-11T23:21:23.693Z,9.20
2023-03-11T23:23:53.870Z,9.20
2023-03-11T23:26:24.533Z,9.10
2023-03-11T23:28:53.548Z,9.20
2023-03-11T23:31:23.545Z,8.90
2023-03-11T23:33:53.060Z,9.00
2023-03-11T23:36:23.814Z,9.10
2023-03-11T23:38:57.359Z,9.10
2023-03-11T23:41:26.777Z,9.00
2023-03-11T23:43:57.748Z,8.80
2023-03-11T23:46:28.220Z,8.70
2023-03-11T23:48:56.299Z,8.80
2023-03-11T23:51:25.864Z,8.80
2023-03-11T23:53:54.932Z,8.90
2023-03-11T23:56:24.060Z,8.80
2023-03-11T23:58:55.025Z,8.70
